createdAt,value
2022-10-30T00:02:06.876Z,6.70
2022-10-30T00:07:10.341Z,6.90
2022-10-30T00:12:15.328Z,6.57
2022-10-30T00:17:18.663Z,7.27
2022-10-30T00:22:22.363Z,6.23
2022-10-30T00:27:27.091Z,7.13
2022-10-30T00:32:30.795Z,6.73
2022-10-30T00:37:34.155Z,8.13
2022-10-30T00:42:38.887Z,8.33
2022-10-30T00:47:45.920Z,9.07
2022-10-30T00:52:52.898Z,8.87
2022-10-30T00:57:59.027Z,8.47
2022-10-30T01:03:02.663Z,7.77
2022-10-30T01:08:06.506Z,8.00
2022-10-30T01:13:12.415Z,7.23
2022-10-30T01:18:36.166Z,7.20
2022-10-30T01:23:55.075Z,6.93
2022-10-30T01:29:15.646Z,6.87
2022-10-30T01:34:21.085Z,5.73
2022-10-30T01:39:28.637Z,7.00
2022-10-30T01:44:35.238Z,7.23
2022-10-30T01:50:03.640Z,7.30
2022-10-30T01:55:18.241Z,7.57
2022-10-30T02:00:24.501Z,8.20
2022-10-30T02:05:34.574Z,7.40
2022-10-30T02:10:39.767Z,7.53
2022-10-30T02:15:46.522Z,6.60
2022-10-30T02:20:51.352Z,7.07
2022-10-30T02:25:54.730Z,6.80
2022-10-30T02:30:58.537Z,8.80
2022-10-30T02:36:03.370Z,9.90
2022-10-30T02:41:06.966Z,9.73
2022-10-30T02:46:10.456Z,8.97
2022-10-30T02:51:15.467Z,8.27
2022-10-30T02:56:19.408Z,8.73
2022-10-30T03:01:23.344Z,8.90
2022-10-30T03:06:32.036Z,7.83
2022-10-30T03:11:36.103Z,8.10
2022-10-30T03:16:40.052Z,8.33
2022-10-30T03:21:45.126Z,8.10
2022-10-30T03:26:50.612Z,6.77
2022-10-30T03:31:54.661Z,8.73
2022-10-30T03:37:01.566Z,7.53
2022-10-30T03:42:05.483Z,7.50
2022-10-30T03:47:08.903Z,7.93
2022-10-30T03:52:18.386Z,8.77
2022-10-30T03:57:21.846Z,8.63
2022-10-30T04:02:48.877Z,9.33
2022-10-30T04:07:58.979Z,9.40
2022-10-30T04:13:03.973Z,8.37
2022-10-30T04:18:07.910Z,9.73
2022-10-30T04:23:15.915Z,9.70
2022-10-30T04:28:21.391Z,10.40
2022-10-30T04:33:24.898Z,9.97
2022-10-30T04:38:29.795Z,9.17
2022-10-30T04:43:33.388Z,8.90
2022-10-30T04:48:37.320Z,7.90
2022-10-30T04:53:42.625Z,8.47
2022-10-30T04:58:49.955Z,8.37
2022-10-30T05:03:54.823Z,8.93
2022-10-30T05:09:00.846Z,7.97
2022-10-30T05:14:17.718Z,8.20
2022-10-30T05:19:22.365Z,9.33
2022-10-30T05:24:32.397Z,9.27
2022-10-30T05:29:36.037Z,9.20
2022-10-30T05:34:39.624Z,8.50
2022-10-30T05:39:44.428Z,8.63
2022-10-30T05:45:01.361Z,8.87
2022-10-30T05:50:10.022Z,9.77
2022-10-30T05:55:15.302Z,8.30
2022-10-30T06:00:40.209Z,9.03
2022-10-30T06:05:46.577Z,8.70
2022-10-30T06:10:52.354Z,8.97
2022-10-30T06:16:03.170Z,8.33
2022-10-30T06:21:27.950Z,8.10
2022-10-30T06:26:53.542Z,8.20
2022-10-30T06:31:59.762Z,8.53
2022-10-30T06:37:05.862Z,9.33
2022-10-30T06:42:10.987Z,8.77
2022-10-30T06:47:37.532Z,8.57
2022-10-30T06:52:41.366Z,8.23
2022-10-30T06:57:46.314Z,8.07
2022-10-30T07:03:08.847Z,7.27
2022-10-30T07:08:13.049Z,7.87
2022-10-30T07:13:18.390Z,7.93
2022-10-30T07:18:30.611Z,7.60
2022-10-30T07:23:36.879Z,7.37
2022-10-30T07:28:54.412Z,7.37
2022-10-30T07:34:02.895Z,7.70
2022-10-30T07:39:44.343Z,7.90
2022-10-30T07:45:12.308Z,6.83
2022-10-30T07:50:35.246Z,7.43
2022-10-30T07:55:38.636Z,6.57
2022-10-30T08:00:49.554Z,7.63
2022-10-30T08:06:00.789Z,6.90
2022-10-30T08:11:10.115Z,6.63
2022-10-30T08:16:14.951Z,6.13
2022-10-30T08:21:19.173Z,6.17
2022-10-30T08:26:35.506Z,6.53
2022-10-30T08:31:41.054Z,6.90
2022-10-30T08:37:00.230Z,5.85
2022-10-30T08:42:03.851Z,5.97
2022-10-30T08:47:14.255Z,6.03
2022-10-30T08:52:18.050Z,5.72
2022-10-30T08:57:25.459Z,5.85
2022-10-30T09:02:32.205Z,5.53
2022-10-30T09:07:59.263Z,5.80
2022-10-30T09:13:21.711Z,5.65
2022-10-30T09:18:26.645Z,4.93
2022-10-30T09:23:30.658Z,5.65
2022-10-30T09:28:54.138Z,4.82
2022-10-30T09:34:22.226Z,5.00
2022-10-30T09:39:46.154Z,4.95
2022-10-30T09:45:27.272Z,4.68
2022-10-30T09:50:35.713Z,4.50
2022-10-30T09:55:51.970Z,4.45
2022-10-30T10:01:07.320Z,4.40
2022-10-30T10:06:19.615Z,4.63
2022-10-30T10:11:46.764Z,4.57
2022-10-30T10:16:53.054Z,4.55
2022-10-30T10:22:00.084Z,5.45
2022-10-30T10:27:13.077Z,4.00
2022-10-30T10:32:46.225Z,4.22
2022-10-30T10:37:57.378Z,4.22
2022-10-30T10:43:12.857Z,4.50
2022-10-30T10:48:44.535Z,4.70
2022-10-30T10:53:55.634Z,3.65
2022-10-30T10:59:02.815Z,4.13
2022-10-30T11:04:12.564Z,3.58
2022-10-30T11:09:19.999Z,3.47
2022-10-30T11:14:25.671Z,3.33
2022-10-30T11:19:32.157Z,2.90
2022-10-30T11:24:37.914Z,3.28
2022-10-30T11:29:50.665Z,3.38
2022-10-30T11:35:04.740Z,4.20
2022-10-30T11:40:20.139Z,4.40
2022-10-30T11:45:28.607Z,3.80
2022-10-30T11:50:33.927Z,3.97
2022-10-30T11:55:40.677Z,4.43
2022-10-30T12:00:45.385Z,3.35
2022-10-30T12:05:50.353Z,3.92
2022-10-30T12:11:01.848Z,3.40
2022-10-30T12:16:09.676Z,3.42
2022-10-30T12:21:20.467Z,3.50
2022-10-30T12:26:27.526Z,3.67
2022-10-30T12:31:36.434Z,3.30
2022-10-30T12:36:46.934Z,2.90
2022-10-30T12:42:01.438Z,2.67
2022-10-30T12:47:10.571Z,2.90
2022-10-30T12:52:21.430Z,2.88
2022-10-30T12:57:29.183Z,3.85
2022-10-30T13:02:46.922Z,3.25
2022-10-30T13:07:59.472Z,3.30
2022-10-30T13:13:11.261Z,3.70
2022-10-30T13:18:18.306Z,5.53
2022-10-30T13:23:29.501Z,5.72
2022-10-30T13:28:40.007Z,3.30
2022-10-30T13:33:52.716Z,3.40
2022-10-30T13:39:02.041Z,3.38
2022-10-30T13:44:20.143Z,4.60
2022-10-30T13:49:50.961Z,3.67
2022-10-30T13:55:00.607Z,5.00
2022-10-30T14:00:15.891Z,5.05
2022-10-30T14:05:34.443Z,5.40
2022-10-30T14:10:47.235Z,5.05
2022-10-30T14:15:55.480Z,4.55
2022-10-30T14:21:00.559Z,4.28
2022-10-30T14:26:15.288Z,4.15
2022-10-30T14:31:33.799Z,4.68
2022-10-30T14:36:50.029Z,4.65
2022-10-30T14:42:06.428Z,5.35
2022-10-30T14:47:49.338Z,5.68
2022-10-30T14:53:06.761Z,5.13
2022-10-30T14:58:19.255Z,5.70
2022-10-30T15:03:41.126Z,5.78
2022-10-30T15:09:06.596Z,6.20
2022-10-30T15:14:21.141Z,6.30
2022-10-30T15:19:26.516Z,6.75
2022-10-30T15:24:32.690Z,5.75
2022-10-30T15:29:37.491Z,6.60
2022-10-30T15:34:40.815Z,6.38
2022-10-30T15:39:45.586Z,5.97
2022-10-30T15:44:49.015Z,7.00
2022-10-30T15:49:55.914Z,6.57
2022-10-30T15:55:04.024Z,5.93
2022-10-30T16:00:09.950Z,7.18
2022-10-30T16:05:22.012Z,6.30
2022-10-30T16:10:30.715Z,7.00
2022-10-30T16:15:37.354Z,9.15
2022-10-30T16:20:43.495Z,7.78
2022-10-30T16:25:49.461Z,10.55
2022-10-30T16:30:53.607Z,9.80
2022-10-30T16:35:57.930Z,11.15
2022-10-30T16:41:02.827Z,10.45
2022-10-30T16:46:36.387Z,9.90
2022-10-30T16:51:40.785Z,9.95
2022-10-30T16:56:47.593Z,11.57
2022-10-30T17:01:55.469Z,11.13
2022-10-30T17:07:18.795Z,10.20
2022-10-30T17:12:25.541Z,10.90
2022-10-30T17:17:34.286Z,12.50
2022-10-30T17:22:37.806Z,12.98
2022-10-30T17:27:49.574Z,13.52
2022-10-30T17:33:02.425Z,13.10
2022-10-30T17:38:06.410Z,12.07
2022-10-30T17:43:15.347Z,13.27
2022-10-30T17:48:20.028Z,11.43
2022-10-30T17:53:25.609Z,12.40
2022-10-30T17:58:31.056Z,12.25
2022-10-30T18:03:34.865Z,11.75
2022-10-30T18:08:38.482Z,12.60
2022-10-30T18:13:44.685Z,11.52
2022-10-30T18:18:48.390Z,11.52
2022-10-30T18:23:53.514Z,11.57
2022-10-30T18:28:58.637Z,10.50
2022-10-30T18:34:01.987Z,10.77
2022-10-30T18:39:05.842Z,11.98
2022-10-30T18:44:14.069Z,11.70
2022-10-30T18:49:18.871Z,12.20
2022-10-30T18:54:22.368Z,11.77
2022-10-30T18:59:27.442Z,11.67
2022-10-30T19:04:31.104Z,11.30
2022-10-30T19:09:34.473Z,10.88
2022-10-30T19:14:39.197Z,10.98
2022-10-30T19:19:42.914Z,11.13
2022-10-30T19:24:46.569Z,10.93
2022-10-30T19:29:51.587Z,10.90
2022-10-30T19:34:55.243Z,11.30
2022-10-30T19:39:58.776Z,11.50
2022-10-30T19:45:03.519Z,13.87
2022-10-30T19:50:19.747Z,13.57
2022-10-30T19:55:23.921Z,10.83
2022-10-30T20:00:30.775Z,10.53
2022-10-30T20:05:36.454Z,11.33
2022-10-30T20:10:41.624Z,12.03
2022-10-30T20:15:46.341Z,12.20
2022-10-30T20:20:51.675Z,11.33
2022-10-30T20:26:01.030Z,11.57
2022-10-30T20:31:06.633Z,11.63
2022-10-30T20:36:12.690Z,12.97
2022-10-30T20:41:23.225Z,11.27
2022-10-30T20:46:27.984Z,11.90
2022-10-30T20:51:31.387Z,13.17
2022-10-30T20:56:34.999Z,12.57
2022-10-30T21:01:39.938Z,11.33
2022-10-30T21:06:43.478Z,12.43
2022-10-30T21:11:46.886Z,14.47
2022-10-30T21:16:51.674Z,12.90
2022-10-30T21:21:55.031Z,12.57
2022-10-30T21:26:58.739Z,13.90
2022-10-30T21:32:03.572Z,12.07
2022-10-30T21:37:06.912Z,11.53
2022-10-30T21:42:10.793Z,11.87
2022-10-30T21:47:16.512Z,11.73
2022-10-30T21:52:20.174Z,11.90
2022-10-30T21:57:23.501Z,12.57
2022-10-30T22:02:28.325Z,12.20
2022-10-30T22:07:31.686Z,11.50
2022-10-30T22:12:35.029Z,10.63
2022-10-30T22:17:39.776Z,11.67
2022-10-30T22:22:43.163Z,10.63
2022-10-30T22:27:47.442Z,10.93
2022-10-30T22:32:52.879Z,12.17
2022-10-30T22:37:58.766Z,10.47
2022-10-30T22:43:02.314Z,10.10
2022-10-30T22:48:08.039Z,11.40
2022-10-30T22:53:11.375Z,10.53
2022-10-30T22:58:15.022Z,10.70
2022-10-30T23:03:19.914Z,10.97
2022-10-30T23:08:23.313Z,10.00
2022-10-30T23:13:26.751Z,11.17
2022-10-30T23:18:31.813Z,11.33
2022-10-30T23:23:37.096Z,10.95
2022-10-30T23:28:40.679Z,11.13
2022-10-30T23:33:47.736Z,9.97
2022-10-30T23:38:54.899Z,10.83
2022-10-30T23:44:00.307Z,10.40
2022-10-30T23:49:05.914Z,10.50
2022-10-30T23:54:09.385Z,11.03
2022-10-30T23:59:13.002Z,10.53
